sensor_id;sensor_type;location;lat;lon;timestamp;pressure;altitude;pressure_sealevel;temperature;humidity
21234;BME280;10774;42.178;26.578;2023-01-10T00:01:35;99774.72;;;6.64;100.00
21234;BME280;10774;42.178;26.578;2023-01-10T00:04:00;99755.91;;;6.67;100.00
21234;BME280;10774;42.178;26.578;2023-01-10T00:06:26;99747.69;;;6.72;100.00
21234;BME280;10774;42.178;26.578;2023-01-10T00:08:51;99764.28;;;6.94;100.00
21234;BME280;10774;42.178;26.578;2023-01-10T00:11:16;99756.16;;;6.97;100.00
21234;BME280;10774;42.178;26.578;2023-01-10T00:14:00;99731.03;;;7.01;100.00
21234;BME280;10774;42.178;26.578;2023-01-10T00:16:26;99754.16;;;7.18;100.00
21234;BME280;10774;42.178;26.578;2023-01-10T00:18:51;99739.84;;;7.19;100.00
21234;BME280;10774;42.178;26.578;2023-01-10T00:21:16;99740.56;;;7.23;100.00
21234;BME280;10774;42.178;26.578;2023-01-10T00:23:43;99740.03;;;7.32;100.00
21234;BME280;10774;42.178;26.578;2023-01-10T00:26:09;99732.63;;;7.21;100.00
21234;BME280;10774;42.178;26.578;2023-01-10T00:28:35;99732.41;;;7.42;100.00
21234;BME280;10774;42.178;26.578;2023-01-10T00:31:01;99724.41;;;7.42;100.00
21234;BME280;10774;42.178;26.578;2023-01-10T00:33:31;99714.22;;;7.48;100.00
21234;BME280;10774;42.178;26.578;2023-01-10T00:36:00;99732.34;;;7.59;100.00
21234;BME280;10774;42.178;26.578;2023-01-10T00:38:26;99719.06;;;7.57;100.00
21234;BME280;10774;42.178;26.578;2023-01-10T00:40:52;99708.56;;;7.54;100.00
21234;BME280;10774;42.178;26.578;2023-01-10T00:43:17;99717.19;;;7.59;100.00
21234;BME280;10774;42.178;26.578;2023-01-10T00:46:01;99696.34;;;7.50;100.00
21234;BME280;10774;42.178;26.578;2023-01-10T00:48:27;99693.91;;;7.46;100.00
21234;BME280;10774;42.178;26.578;2023-01-10T00:50:53;99682.53;;;7.58;100.00
21234;BME280;10774;42.178;26.578;2023-01-10T00:53:18;99677.56;;;7.68;100.00
21234;BME280;10774;42.178;26.578;2023-01-10T00:55:44;99695.91;;;7.74;100.00
21234;BME280;10774;42.178;26.578;2023-01-10T00:58:09;99704.50;;;7.79;100.00
21234;BME280;10774;42.178;26.578;2023-01-10T01:03:11;99672.56;;;7.77;100.00
21234;BME280;10774;42.178;26.578;2023-01-10T01:05:44;99664.09;;;7.69;100.00
21234;BME280;10774;42.178;26.578;2023-01-10T01:08:11;99693.41;;;7.86;100.00
21234;BME280;10774;42.178;26.578;2023-01-10T01:10:36;99684.34;;;7.89;100.00
21234;BME280;10774;42.178;26.578;2023-01-10T01:13:07;99678.03;;;7.90;100.00
21234;BME280;10774;42.178;26.578;2023-01-10T01:15:33;99662.00;;;7.90;100.00
21234;BME280;10774;42.178;26.578;2023-01-10T01:17:59;99662.53;;;7.97;100.00
21234;BME280;10774;42.178;26.578;2023-01-10T01:20:25;99647.16;;;8.00;100.00
21234;BME280;10774;42.178;26.578;2023-01-10T01:22:50;99597.88;;;7.90;100.00
21234;BME280;10774;42.178;26.578;2023-01-10T01:25:16;99616.13;;;8.13;100.00
21234;BME280;10774;42.178;26.578;2023-01-10T01:27:41;99636.00;;;8.24;100.00
21234;BME280;10774;42.178;26.578;2023-01-10T01:30:08;99635.63;;;8.30;100.00
21234;BME280;10774;42.178;26.578;2023-01-10T01:32:34;99623.97;;;8.31;100.00
21234;BME280;10774;42.178;26.578;2023-01-10T01:35:00;99599.53;;;8.23;100.00
21234;BME280;10774;42.178;26.578;2023-01-10T01:37:25;99621.22;;;8.32;100.00
21234;BME280;10774;42.178;26.578;2023-01-10T01:39:51;99640.28;;;8.42;100.00
21234;BME280;10774;42.178;26.578;2023-01-10T01:42:28;99643.81;;;8.43;100.00
21234;BME280;10774;42.178;26.578;2023-01-10T01:47:42;99640.84;;;8.47;100.00
21234;BME280;10774;42.178;26.578;2023-01-10T01:50:27;99634.56;;;8.48;100.00
21234;BME280;10774;42.178;26.578;2023-01-10T01:52:59;99624.22;;;8.42;100.00
21234;BME280;10774;42.178;26.578;2023-01-10T01:55:26;99616.41;;;8.39;100.00
21234;BME280;10774;42.178;26.578;2023-01-10T01:57:54;99621.19;;;8.48;100.00
21234;BME280;10774;42.178;26.578;2023-01-10T02:00:22;99625.00;;;8.44;100.00
21234;BME280;10774;42.178;26.578;2023-01-10T02:02:51;99614.50;;;8.41;100.00
21234;BME280;10774;42.178;26.578;2023-01-10T02:05:19;99612.56;;;8.43;100.00
21234;BME280;10774;42.178;26.578;2023-01-10T02:07:51;99628.06;;;8.52;100.00
21234;BME280;10774;42.178;26.578;2023-01-10T02:13:23;99623.50;;;8.54;100.00
21234;BME280;10774;42.178;26.578;2023-01-10T02:15:49;99634.59;;;8.62;100.00
21234;BME280;10774;42.178;26.578;2023-01-10T02:18:16;99626.44;;;8.64;100.00
21234;BME280;10774;42.178;26.578;2023-01-10T02:34:19;99591.59;;;8.66;100.00
21234;BME280;10774;42.178;26.578;2023-01-10T02:39:57;99617.19;;;8.70;100.00
21234;BME280;10774;42.178;26.578;2023-01-10T02:42:45;99622.53;;;8.70;100.00
21234;BME280;10774;42.178;26.578;2023-01-10T02:45:16;99611.56;;;8.60;100.00
21234;BME280;10774;42.178;26.578;2023-01-10T02:47:43;99599.69;;;8.64;100.00
21234;BME280;10774;42.178;26.578;2023-01-10T02:52:49;99591.78;;;8.62;100.00
21234;BME280;10774;42.178;26.578;2023-01-10T02:55:15;99574.28;;;8.57;100.00
21234;BME280;10774;42.178;26.578;2023-01-10T03:00:56;99594.47;;;8.77;100.00
21234;BME280;10774;42.178;26.578;2023-01-10T03:04:15;99592.38;;;8.82;100.00
21234;BME280;10774;42.178;26.578;2023-01-10T03:06:25;99584.63;;;8.77;100.00
21234;BME280;10774;42.178;26.578;2023-01-10T03:09:03;99584.69;;;8.90;100.00
21234;BME280;10774;42.178;26.578;2023-01-10T03:11:33;99551.25;;;8.83;100.00
21234;BME280;10774;42.178;26.578;2023-01-10T03:14:25;99556.63;;;8.83;100.00
21234;BME280;10774;42.178;26.578;2023-01-10T03:16:59;99546.66;;;8.85;100.00
21234;BME280;10774;42.178;26.578;2023-01-10T03:19:30;99549.16;;;8.88;100.00
21234;BME280;10774;42.178;26.578;2023-01-10T03:22:00;99534.63;;;8.92;100.00
21234;BME280;10774;42.178;26.578;2023-01-10T03:24:34;99535.56;;;9.05;100.00
21234;BME280;10774;42.178;26.578;2023-01-10T03:29:38;99538.69;;;9.12;100.00
21234;BME280;10774;42.178;26.578;2023-01-10T03:32:08;99524.44;;;9.11;100.00
21234;BME280;10774;42.178;26.578;2023-01-10T03:34:36;99517.59;;;9.07;100.00
21234;BME280;10774;42.178;26.578;2023-01-10T03:39:50;99517.81;;;9.17;100.00
21234;BME280;10774;42.178;26.578;2023-01-10T03:47:23;99501.13;;;9.13;100.00
21234;BME280;10774;42.178;26.578;2023-01-10T03:49:53;99493.72;;;9.17;100.00
21234;BME280;10774;42.178;26.578;2023-01-10T03:52:22;99499.88;;;9.19;100.00
21234;BME280;10774;42.178;26.578;2023-01-10T03:54:49;99509.50;;;9.22;100.00
21234;BME280;10774;42.178;26.578;2023-01-10T03:57:20;99514.16;;;9.32;100.00
21234;BME280;10774;42.178;26.578;2023-01-10T03:59:50;99501.38;;;9.23;100.00
21234;BME280;10774;42.178;26.578;2023-01-10T04:02:16;99494.28;;;9.22;100.00
21234;BME280;10774;42.178;26.578;2023-01-10T04:04:41;99494.00;;;9.27;100.00
21234;BME280;10774;42.178;26.578;2023-01-10T04:07:07;99499.16;;;9.30;100.00
21234;BME280;10774;42.178;26.578;2023-01-10T04:09:32;99492.66;;;9.34;100.00
21234;BME280;10774;42.178;26.578;2023-01-10T04:11:58;99500.81;;;9.45;100.00
21234;BME280;10774;42.178;26.578;2023-01-10T04:14:23;99489.84;;;9.35;100.00
21234;BME280;10774;42.178;26.578;2023-01-10T04:16:49;99497.84;;;9.50;100.00
21234;BME280;10774;42.178;26.578;2023-01-10T04:19:14;99499.44;;;9.52;100.00
21234;BME280;10774;42.178;26.578;2023-01-10T04:21:39;99486.47;;;9.46;100.00
21234;BME280;10774;42.178;26.578;2023-01-10T04:24:05;99476.59;;;9.47;100.00
21234;BME280;10774;42.178;26.578;2023-01-10T04:26:31;99492.69;;;9.59;100.00
21234;BME280;10774;42.178;26.578;2023-01-10T04:28:56;99495.59;;;9.56;100.00
21234;BME280;10774;42.178;26.578;2023-01-10T04:31:22;99501.94;;;9.55;100.00
21234;BME280;10774;42.178;26.578;2023-01-10T04:33:47;99489.88;;;9.48;100.00
21234;BME280;10774;42.178;26.578;2023-01-10T04:36:13;99499.56;;;9.51;100.00
21234;BME280;10774;42.178;26.578;2023-01-10T04:38:38;99509.00;;;9.56;100.00
21234;BME280;10774;42.178;26.578;2023-01-10T04:41:04;99507.47;;;9.52;100.00
21234;BME280;10774;42.178;26.578;2023-01-10T04:43:29;99531.00;;;9.61;100.00
21234;BME280;10774;42.178;26.578;2023-01-10T04:45:55;99519.72;;;9.56;100.00
21234;BME280;10774;42.178;26.578;2023-01-10T04:48:20;99524.66;;;9.62;100.00
21234;BME280;10774;42.178;26.578;2023-01-10T04:50:50;99526.38;;;9.63;100.00
21234;BME280;10774;42.178;26.578;2023-01-10T04:53:15;99509.88;;;9.69;100.00
21234;BME280;10774;42.178;26.578;2023-01-10T04:55:41;99509.88;;;9.69;100.00
21234;BME280;10774;42.178;26.578;2023-01-10T04:58:07;99518.47;;;9.75;100.00
21234;BME280;10774;42.178;26.578;2023-01-10T05:00:32;99510.25;;;9.78;100.00
21234;BME280;10774;42.178;26.578;2023-01-10T05:02:57;99514.63;;;9.79;100.00
21234;BME280;10774;42.178;26.578;2023-01-10T05:05:23;99502.81;;;9.68;100.00
21234;BME280;10774;42.178;26.578;2023-01-10T05:07:49;99505.63;;;9.80;100.00
21234;BME280;10774;42.178;26.578;2023-01-10T05:10:15;99491.66;;;9.75;100.00
21234;BME280;10774;42.178;26.578;2023-01-10T05:12:41;99486.44;;;9.73;100.00
21234;BME280;10774;42.178;26.578;2023-01-10T05:15:07;99494.47;;;9.86;100.00
21234;BME280;10774;42.178;26.578;2023-01-10T05:17:32;99483.56;;;9.76;100.00
21234;BME280;10774;42.178;26.578;2023-01-10T05:19:58;99480.56;;;9.81;100.00
21234;BME280;10774;42.178;26.578;2023-01-10T05:22:23;99497.94;;;9.88;100.00
21234;BME280;10774;42.178;26.578;2023-01-10T05:24:48;99501.91;;;9.95;100.00
21234;BME280;10774;42.178;26.578;2023-01-10T05:27:14;99470.22;;;9.75;100.00
21234;BME280;10774;42.178;26.578;2023-01-10T05:29:40;99502.63;;;9.84;100.00
21234;BME280;10774;42.178;26.578;2023-01-10T05:32:05;99512.31;;;9.87;100.00
21234;BME280;10774;42.178;26.578;2023-01-10T05:34:31;99516.47;;;9.91;100.00
21234;BME280;10774;42.178;26.578;2023-01-10T05:36:56;99522.19;;;9.99;100.00
21234;BME280;10774;42.178;26.578;2023-01-10T05:39:22;99531.38;;;9.95;100.00
21234;BME280;10774;42.178;26.578;2023-01-10T05:41:47;99531.75;;;10.03;100.00
21234;BME280;10774;42.178;26.578;2023-01-10T05:44:13;99539.56;;;10.06;100.00
21234;BME280;10774;42.178;26.578;2023-01-10T05:46:38;99529.47;;;9.97;100.00
21234;BME280;10774;42.178;26.578;2023-01-10T05:49:04;99538.06;;;10.02;100.00
21234;BME280;10774;42.178;26.578;2023-01-10T05:51:30;99545.56;;;9.97;100.00
21234;BME280;10774;42.178;26.578;2023-01-10T05:53:55;99554.91;;;10.04;100.00
21234;BME280;10774;42.178;26.578;2023-01-10T05:56:23;99546.84;;;9.91;100.00
21234;BME280;10774;42.178;26.578;2023-01-10T05:58:48;99546.72;;;9.93;100.00
21234;BME280;10774;42.178;26.578;2023-01-10T06:01:14;99537.38;;;9.86;100.00
21234;BME280;10774;42.178;26.578;2023-01-10T06:03:39;99544.25;;;9.90;100.00
21234;BME280;10774;42.178;26.578;2023-01-10T06:06:04;99524.31;;;9.81;100.00
21234;BME280;10774;42.178;26.578;2023-01-10T06:08:30;99524.75;;;9.88;100.00
21234;BME280;10774;42.178;26.578;2023-01-10T06:10:56;99517.00;;;9.83;100.00
21234;BME280;10774;42.178;26.578;2023-01-10T06:13:22;99530.75;;;9.91;100.00
21234;BME280;10774;42.178;26.578;2023-01-10T06:15:47;99518.28;;;9.90;100.00
21234;BME280;10774;42.178;26.578;2023-01-10T06:18:13;99513.78;;;9.91;100.00
21234;BME280;10774;42.178;26.578;2023-01-10T06:20:42;99530.03;;;10.02;100.00
21234;BME280;10774;42.178;26.578;2023-01-10T06:23:07;99513.78;;;9.91;100.00
21234;BME280;10774;42.178;26.578;2023-01-10T06:25:34;99516.16;;;9.83;100.00
21234;BME280;10774;42.178;26.578;2023-01-10T06:28:06;99520.44;;;9.85;100.00
21234;BME280;10774;42.178;26.578;2023-01-10T06:30:32;99531.38;;;9.95;100.00
21234;BME280;10774;42.178;26.578;2023-01-10T06:33:05;99535.03;;;9.94;100.00
21234;BME280;10774;42.178;26.578;2023-01-10T06:35:31;99525.16;;;9.82;100.00
21234;BME280;10774;42.178;26.578;2023-01-10T06:37:57;99537.38;;;9.86;100.00
21234;BME280;10774;42.178;26.578;2023-01-10T06:40:22;99530.75;;;9.91;100.00
21234;BME280;10774;42.178;26.578;2023-01-10T06:42:48;99530.53;;;9.94;100.00
21234;BME280;10774;42.178;26.578;2023-01-10T06:45:14;99529.00;;;9.78;100.00
21234;BME280;10774;42.178;26.578;2023-01-10T06:47:40;99520.41;;;9.73;100.00
21234;BME280;10774;42.178;26.578;2023-01-10T06:50:06;99523.03;;;9.87;100.00
21234;BME280;10774;42.178;26.578;2023-01-10T06:52:31;99503.78;;;9.80;100.00
21234;BME280;10774;42.178;26.578;2023-01-10T06:54:57;99498.53;;;9.79;100.00
21234;BME280;10774;42.178;26.578;2023-01-10T06:57:22;99494.03;;;9.79;100.00
21234;BME280;10774;42.178;26.578;2023-01-10T06:59:48;99491.28;;;9.81;100.00
21234;BME280;10774;42.178;26.578;2023-01-10T07:02:13;99487.16;;;9.62;100.00
21234;BME280;10774;42.178;26.578;2023-01-10T07:04:39;99491.34;;;9.66;100.00
21234;BME280;10774;42.178;26.578;2023-01-10T07:07:05;99493.59;;;9.73;100.00
21234;BME280;10774;42.178;26.578;2023-01-10T07:09:30;99499.28;;;9.68;100.00
21234;BME280;10774;42.178;26.578;2023-01-10T07:11:56;99495.19;;;9.62;100.00
21234;BME280;10774;42.178;26.578;2023-01-10T07:14:21;99479.41;;;9.45;100.00
21234;BME280;10774;42.178;26.578;2023-01-10T07:16:47;99473.38;;;9.41;100.00
21234;BME280;10774;42.178;26.578;2023-01-10T07:19:12;99495.25;;;9.48;100.00
21234;BME280;10774;42.178;26.578;2023-01-10T07:21:38;99503.84;;;9.53;100.00
21234;BME280;10774;42.178;26.578;2023-01-10T07:24:04;99500.47;;;9.37;100.00
21234;BME280;10774;42.178;26.578;2023-01-10T07:26:29;99499.84;;;9.46;100.00
21234;BME280;10774;42.178;26.578;2023-01-10T07:28:55;99503.81;;;9.40;100.00
21234;BME280;10774;42.178;26.578;2023-01-10T07:31:21;99506.81;;;9.49;100.00
21234;BME280;10774;42.178;26.578;2023-01-10T07:33:48;99510.31;;;9.63;100.00
21234;BME280;10774;42.178;26.578;2023-01-10T07:36:14;99499.13;;;9.57;100.00
21234;BME280;10774;42.178;26.578;2023-01-10T07:38:40;99503.91;;;9.66;100.00
21234;BME280;10774;42.178;26.578;2023-01-10T07:41:06;99507.97;;;9.72;100.00
21234;BME280;10774;42.178;26.578;2023-01-10T07:43:31;99504.13;;;9.76;100.00
21234;BME280;10774;42.178;26.578;2023-01-10T07:46:01;99493.41;;;9.76;100.00
21234;BME280;10774;42.178;26.578;2023-01-10T07:48:26;99511.88;;;9.93;100.00
21234;BME280;10774;42.178;26.578;2023-01-10T07:50:56;99487.41;;;9.85;100.00
21234;BME280;10774;42.178;26.578;2023-01-10T07:53:22;99485.50;;;9.87;100.00
21234;BME280;10774;42.178;26.578;2023-01-10T07:55:48;99498.72;;;10.03;100.00
21234;BME280;10774;42.178;26.578;2023-01-10T07:58:14;99491.72;;;10.00;100.00
21234;BME280;10774;42.178;26.578;2023-01-10T08:00:39;99496.88;;;10.03;100.00
21234;BME280;10774;42.178;26.578;2023-01-10T08:03:05;99504.16;;;10.01;100.00
21234;BME280;10774;42.178;26.578;2023-01-10T08:05:31;99499.56;;;10.03;100.00
21234;BME280;10774;42.178;26.578;2023-01-10T08:07:56;99479.50;;;10.09;100.00
21234;BME280;10774;42.178;26.578;2023-01-10T08:10:25;99474.81;;;10.12;100.00
21234;BME280;10774;42.178;26.578;2023-01-10T08:12:50;99465.13;;;10.22;100.00
21234;BME280;10774;42.178;26.578;2023-01-10T08:15:16;99472.44;;;10.20;100.00
21234;BME280;10774;42.178;26.578;2023-01-10T08:17:41;99453.66;;;10.20;100.00
21234;BME280;10774;42.178;26.578;2023-01-10T08:20:07;99458.03;;;10.21;100.00
21234;BME280;10774;42.178;26.578;2023-01-10T08:22:33;99453.78;;;10.32;100.00
21234;BME280;10774;42.178;26.578;2023-01-10T08:24:59;99443.91;;;10.19;100.00
21234;BME280;10774;42.178;26.578;2023-01-10T08:27:24;99453.59;;;10.35;100.00
21234;BME280;10774;42.178;26.578;2023-01-10T08:29:49;99442.41;;;10.41;100.00
21234;BME280;10774;42.178;26.578;2023-01-10T08:32:15;99414.53;;;10.31;100.00
21234;BME280;10774;42.178;26.578;2023-01-10T08:34:40;99399.28;;;10.31;100.00
21234;BME280;10774;42.178;26.578;2023-01-10T08:37:06;99420.75;;;10.44;100.00
21234;BME280;10774;42.178;26.578;2023-01-10T08:39:31;99416.41;;;10.54;100.00
21234;BME280;10774;42.178;26.578;2023-01-10T08:41:59;99409.56;;;10.50;100.00
21234;BME280;10774;42.178;26.578;2023-01-10T08:44:24;99415.53;;;10.54;100.00
21234;BME280;10774;42.178;26.578;2023-01-10T08:46:51;99406.53;;;10.55;100.00
21234;BME280;10774;42.178;26.578;2023-01-10T08:49:16;99391.72;;;10.49;100.00
21234;BME280;10774;42.178;26.578;2023-01-10T08:51:42;99389.22;;;10.59;100.00
21234;BME280;10774;42.178;26.578;2023-01-10T08:54:09;99392.16;;;10.56;100.00
21234;BME280;10774;42.178;26.578;2023-01-10T08:56:34;99385.06;;;10.55;100.00
21234;BME280;10774;42.178;26.578;2023-01-10T08:59:01;99411.09;;;10.78;100.00
21234;BME280;10774;42.178;26.578;2023-01-10T09:01:27;99386.53;;;10.71;100.00
21234;BME280;10774;42.178;26.578;2023-01-10T09:03:52;99384.34;;;10.77;100.00
21234;BME280;10774;42.178;26.578;2023-01-10T09:06:17;99380.03;;;10.87;100.00
21234;BME280;10774;42.178;26.578;2023-01-10T09:08:43;99373.16;;;10.83;100.00
21234;BME280;10774;42.178;26.578;2023-01-10T09:11:09;99377.41;;;10.98;100.00
21234;BME280;10774;42.178;26.578;2023-01-10T09:13:34;99378.25;;;10.98;100.00
21234;BME280;10774;42.178;26.578;2023-01-10T09:15:59;99379.22;;;10.97;100.00
21234;BME280;10774;42.178;26.578;2023-01-10T09:18:25;99375.44;;;11.00;100.00
21234;BME280;10774;42.178;26.578;2023-01-10T09:20:52;99351.63;;;10.95;100.00
21234;BME280;10774;42.178;26.578;2023-01-10T09:23:20;99362.06;;;11.11;100.00
21234;BME280;10774;42.178;26.578;2023-01-10T09:25:48;99367.44;;;11.11;100.00
21234;BME280;10774;42.178;26.578;2023-01-10T09:28:14;99360.25;;;11.23;100.00
21234;BME280;10774;42.178;26.578;2023-01-10T09:30:40;99347.44;;;11.15;100.00
21234;BME280;10774;42.178;26.578;2023-01-10T09:33:06;99339.66;;;11.23;100.00
21234;BME280;10774;42.178;26.578;2023-01-10T09:35:34;99326.16;;;11.12;100.00
21234;BME280;10774;42.178;26.578;2023-01-10T09:38:02;99326.22;;;11.23;100.00
21234;BME280;10774;42.178;26.578;2023-01-10T09:49:09;99313.81;;;11.34;100.00
21234;BME280;10774;42.178;26.578;2023-01-10T09:51:44;99298.28;;;11.37;100.00
21234;BME280;10774;42.178;26.578;2023-01-10T09:54:26;99277.75;;;11.36;100.00
21234;BME280;10774;42.178;26.578;2023-01-10T09:56:54;99279.13;;;11.42;100.00
21234;BME280;10774;42.178;26.578;2023-01-10T09:59:23;99287.81;;;11.57;100.00
21234;BME280;10774;42.178;26.578;2023-01-10T10:01:54;99261.28;;;11.52;99.59
21234;BME280;10774;42.178;26.578;2023-01-10T10:04:31;99264.00;;;11.63;99.91
21234;BME280;10774;42.178;26.578;2023-01-10T10:06:58;99264.13;;;11.73;99.54
21234;BME280;10774;42.178;26.578;2023-01-10T10:09:27;99247.63;;;11.66;99.59
21234;BME280;10774;42.178;26.578;2023-01-10T10:12:28;99256.91;;;11.62;100.00
21234;BME280;10774;42.178;26.578;2023-01-10T10:15:02;99256.91;;;11.62;99.88
21234;BME280;10774;42.178;26.578;2023-01-10T10:18:13;99259.34;;;11.54;100.00
21234;BME280;10774;42.178;26.578;2023-01-10T10:37:08;99199.72;;;11.71;100.00
21234;BME280;10774;42.178;26.578;2023-01-10T10:40:22;99200.94;;;11.67;100.00
21234;BME280;10774;42.178;26.578;2023-01-10T10:42:35;99198.63;;;11.63;100.00
21234;BME280;10774;42.178;26.578;2023-01-10T10:45:04;99205.34;;;11.68;100.00
21234;BME280;10774;42.178;26.578;2023-01-10T10:47:34;99177.25;;;11.61;100.00
21234;BME280;10774;42.178;26.578;2023-01-10T10:52:39;99176.75;;;11.67;100.00
21234;BME280;10774;42.178;26.578;2023-01-10T10:55:06;99193.38;;;11.61;99.76
21234;BME280;10774;42.178;26.578;2023-01-10T10:57:37;99173.72;;;11.61;99.59
21234;BME280;10774;42.178;26.578;2023-01-10T11:00:04;99165.72;;;11.70;99.31
21234;BME280;10774;42.178;26.578;2023-01-10T11:02:38;99146.47;;;11.65;98.60
21234;BME280;10774;42.178;26.578;2023-01-10T11:05:12;99134.50;;;11.47;98.45
21234;BME280;10774;42.178;26.578;2023-01-10T11:07:39;99164.28;;;11.66;98.62
21234;BME280;10774;42.178;26.578;2023-01-10T11:10:13;99156.34;;;11.65;99.29
21234;BME280;10774;42.178;26.578;2023-01-10T11:12:59;99148.16;;;11.66;99.74
21234;BME280;10774;42.178;26.578;2023-01-10T11:15:40;99142.06;;;11.53;99.62
21234;BME280;10774;42.178;26.578;2023-01-10T11:18:18;99139.16;;;11.45;100.00
21234;BME280;10774;42.178;26.578;2023-01-10T11:20:52;99124.97;;;11.43;100.00
21234;BME280;10774;42.178;26.578;2023-01-10T11:26:25;99126.66;;;11.44;100.00
21234;BME280;10774;42.178;26.578;2023-01-10T11:29:02;99105.94;;;11.35;100.00
21234;BME280;10774;42.178;26.578;2023-01-10T11:31:30;99098.47;;;11.38;99.62
21234;BME280;10774;42.178;26.578;2023-01-10T11:33:56;99085.66;;;11.42;99.28
21234;BME280;10774;42.178;26.578;2023-01-10T11:36:22;99087.09;;;11.57;97.90
21234;BME280;10774;42.178;26.578;2023-01-10T11:39:01;99092.19;;;11.71;95.00
21234;BME280;10774;42.178;26.578;2023-01-10T11:41:27;99093.38;;;11.78;94.57
21234;BME280;10774;42.178;26.578;2023-01-10T11:44:15;99087.53;;;11.85;94.79
21234;BME280;10774;42.178;26.578;2023-01-10T11:46:43;99067.47;;;11.89;93.89
21234;BME280;10774;42.178;26.578;2023-01-10T11:49:19;99058.44;;;11.90;93.57
21234;BME280;10774;42.178;26.578;2023-01-10T11:51:49;99067.16;;;11.82;94.24
21234;BME280;10774;42.178;26.578;2023-01-10T11:54:20;99081.63;;;11.91;93.65
21234;BME280;10774;42.178;26.578;2023-01-10T11:57:08;99066.28;;;11.82;95.27
21234;BME280;10774;42.178;26.578;2023-01-10T11:59:49;99052.06;;;11.79;94.49
21234;BME280;10774;42.178;26.578;2023-01-10T12:02:24;99048.81;;;11.76;94.81
21234;BME280;10774;42.178;26.578;2023-01-10T12:04:54;99060.66;;;11.73;97.78
21234;BME280;10774;42.178;26.578;2023-01-10T12:07:20;99059.44;;;11.77;98.41
21234;BME280;10774;42.178;26.578;2023-01-10T12:09:59;99048.66;;;11.77;99.05
21234;BME280;10774;42.178;26.578;2023-01-10T12:15:46;99044.91;;;11.69;100.00
21234;BME280;10774;42.178;26.578;2023-01-10T12:18:05;99048.06;;;11.74;100.00
21234;BME280;10774;42.178;26.578;2023-01-10T12:20:50;99039.91;;;11.64;99.66
21234;BME280;10774;42.178;26.578;2023-01-10T12:23:18;99042.88;;;11.61;100.00
21234;BME280;10774;42.178;26.578;2023-01-10T12:25:45;99042.59;;;11.64;100.00
21234;BME280;10774;42.178;26.578;2023-01-10T12:28:24;99042.41;;;11.45;100.00
21234;BME280;10774;42.178;26.578;2023-01-10T12:30:52;99047.38;;;11.61;100.00
21234;BME280;10774;42.178;26.578;2023-01-10T12:33:28;99065.22;;;11.62;99.00
21234;BME280;10774;42.178;26.578;2023-01-10T12:36:01;99065.31;;;11.71;96.82
21234;BME280;10774;42.178;26.578;2023-01-10T12:41:31;99053.72;;;11.71;96.01
21234;BME280;10774;42.178;26.578;2023-01-10T12:44:35;99075.06;;;11.84;94.92
21234;BME280;10774;42.178;26.578;2023-01-10T12:49:54;99076.41;;;11.89;92.60
21234;BME280;10774;42.178;26.578;2023-01-10T12:54:53;99083.63;;;11.77;97.80
21234;BME280;10774;42.178;26.578;2023-01-10T12:57:29;99081.69;;;11.68;100.00
21234;BME280;10774;42.178;26.578;2023-01-10T12:59:57;99103.69;;;11.62;100.00
21234;BME280;10774;42.178;26.578;2023-01-10T13:02:28;99075.13;;;11.39;100.00
21234;BME280;10774;42.178;26.578;2023-01-10T13:04:59;99084.34;;;11.25;100.00
21234;BME280;10774;42.178;26.578;2023-01-10T13:07:31;99098.34;;;11.17;100.00
21234;BME280;10774;42.178;26.578;2023-01-10T13:10:00;99101.06;;;11.06;100.00
21234;BME280;10774;42.178;26.578;2023-01-10T13:12:35;99093.00;;;10.95;100.00
21234;BME280;10774;42.178;26.578;2023-01-10T13:22:52;99101.75;;;10.74;100.00
21234;BME280;10774;42.178;26.578;2023-01-10T13:25:32;99114.94;;;10.66;100.00
21234;BME280;10774;42.178;26.578;2023-01-10T13:28:07;99111.97;;;10.58;100.00
21234;BME280;10774;42.178;26.578;2023-01-10T13:30:39;99095.47;;;10.40;100.00
21234;BME280;10774;42.178;26.578;2023-01-10T13:33:22;99097.78;;;10.34;100.00
21234;BME280;10774;42.178;26.578;2023-01-10T13:35:51;99123.28;;;10.39;100.00
21234;BME280;10774;42.178;26.578;2023-01-10T13:38:20;99092.56;;;10.19;100.00
21234;BME280;10774;42.178;26.578;2023-01-10T13:41:06;99104.03;;;10.21;100.00
21234;BME280;10774;42.178;26.578;2023-01-10T13:51:25;99065.22;;;10.03;100.00
21234;BME280;10774;42.178;26.578;2023-01-10T13:53:56;99062.06;;;10.09;100.00
21234;BME280;10774;42.178;26.578;2023-01-10T13:56:39;99055.56;;;10.01;100.00
21234;BME280;10774;42.178;26.578;2023-01-10T14:02:20;99047.94;;;10.07;100.00
21234;BME280;10774;42.178;26.578;2023-01-10T14:05:01;99030.38;;;10.03;100.00
21234;BME280;10774;42.178;26.578;2023-01-10T14:07:30;99040.41;;;10.12;100.00
21234;BME280;10774;42.178;26.578;2023-01-10T14:10:05;99032.22;;;10.14;100.00
21234;BME280;10774;42.178;26.578;2023-01-10T14:12:47;99030.75;;;10.10;100.00
21234;BME280;10774;42.178;26.578;2023-01-10T14:18:05;99022.00;;;10.19;100.00
21234;BME280;10774;42.178;26.578;2023-01-10T14:20:34;99029.78;;;10.22;100.00
21234;BME280;10774;42.178;26.578;2023-01-10T14:23:04;99042.88;;;10.27;100.00
21234;BME280;10774;42.178;26.578;2023-01-10T14:25:33;99027.09;;;10.11;100.00
21234;BME280;10774;42.178;26.578;2023-01-10T14:27:59;99034.31;;;10.21;100.00
21234;BME280;10774;42.178;26.578;2023-01-10T14:30:32;99063.81;;;10.21;100.00
21234;BME280;10774;42.178;26.578;2023-01-10T14:33:19;99063.09;;;10.19;100.00
21234;BME280;10774;42.178;26.578;2023-01-10T14:35:49;99050.66;;;10.18;100.00
21234;BME280;10774;42.178;26.578;2023-01-10T14:38:29;99058.88;;;10.28;100.00
21234;BME280;10774;42.178;26.578;2023-01-10T14:41:01;99056.00;;;10.18;100.00
21234;BME280;10774;42.178;26.578;2023-01-10T14:43:36;99040.63;;;10.09;100.00